Abegondo, Spain
Current Conditions -  °F | °C
As of 1:00 AM on Monday 22 Dec 2014 (Local Time) from LECO Reporting Station
Moderate Fog Moderate Fog  
Wind Chill: 41°   Ceiling: 100
Heat Index: 41°   Visibility: 0.09mi
Dew Point: 41°   Wind: 2mph
Humidity: 100%   Direction: NA
Pressure: 30.45"   Gusts: NA
Location:  43.22°N, 8.28°W
Report Text: LECO 220000Z VRB02KT 0150 R21/0300N R03/0325N FG VV001 05/05 Q1031 NOSIG
Loading
Personal Weather Stations






























Interactive Weather Map New forecast layout! Learn more

10-Day Weather Forecast

Advertisements
Track Severe Weather on mobile